createdAt,value
2023-02-22T00:01:19.249Z,12.35
2023-02-22T00:03:49.588Z,10.95
2023-02-22T00:06:17.920Z,10.40
2023-02-22T00:08:44.978Z,10.65
2023-02-22T00:11:14.742Z,10.43
2023-02-22T00:13:45.130Z,10.43
2023-02-22T00:16:16.359Z,11.20
2023-02-22T00:18:44.319Z,10.27
2023-02-22T00:21:12.144Z,11.07
2023-02-22T00:23:40.877Z,11.13
2023-02-22T00:26:09.833Z,10.95
2023-02-22T00:28:38.096Z,11.75
2023-02-22T00:31:06.655Z,12.20
2023-02-22T00:33:34.209Z,10.68
2023-02-22T00:36:01.241Z,11.85
2023-02-22T00:38:28.270Z,10.95
2023-02-22T00:40:55.572Z,10.00
2023-02-22T00:43:22.671Z,12.25
2023-02-22T00:45:49.687Z,8.90
2023-02-22T00:48:16.824Z,9.25
2023-02-22T00:50:43.902Z,7.65
2023-02-22T00:53:11.448Z,7.88
2023-02-22T00:58:07.373Z,7.30
2023-02-22T01:00:37.031Z,6.00
2023-02-22T01:03:05.105Z,6.50
2023-02-22T01:05:33.121Z,6.15
2023-02-22T01:08:01.349Z,6.05
2023-02-22T01:10:29.554Z,5.72
2023-02-22T01:12:57.264Z,6.28
2023-02-22T01:15:25.401Z,5.57
2023-02-22T01:17:53.534Z,4.88
2023-02-22T01:20:22.649Z,5.80
2023-02-22T01:22:51.109Z,5.63
2023-02-22T01:25:19.667Z,5.03
2023-02-22T01:27:46.945Z,6.10
2023-02-22T01:30:15.596Z,5.03
2023-02-22T01:32:43.205Z,5.82
2023-02-22T01:35:13.617Z,6.05
2023-02-22T01:37:41.118Z,6.63
2023-02-22T01:40:09.387Z,7.32
2023-02-22T01:42:37.040Z,7.30
2023-02-22T01:45:22.848Z,6.97
2023-02-22T01:47:49.915Z,8.15
2023-02-22T01:50:17.041Z,7.57
2023-02-22T01:52:44.303Z,8.20
2023-02-22T01:55:11.631Z,7.53
2023-02-22T01:57:39.066Z,7.05
2023-02-22T02:00:10.159Z,7.75
2023-02-22T02:02:40.434Z,6.93
2023-02-22T02:05:08.372Z,6.80
2023-02-22T02:07:36.756Z,5.95
2023-02-22T02:10:08.354Z,5.80
2023-02-22T02:12:37.157Z,6.28
2023-02-22T02:15:23.238Z,5.85
2023-02-22T02:17:51.012Z,5.18
2023-02-22T02:20:18.047Z,5.07
2023-02-22T02:22:55.543Z,5.25
2023-02-22T02:25:22.527Z,4.80
2023-02-22T02:28:18.873Z,5.18
2023-02-22T02:30:48.769Z,4.63
2023-02-22T02:33:18.551Z,4.45
2023-02-22T02:35:57.631Z,4.70
2023-02-22T02:38:32.969Z,4.80
2023-02-22T02:41:10.708Z,3.78
2023-02-22T02:43:48.144Z,4.32
2023-02-22T02:46:33.742Z,4.03
2023-02-22T02:49:02.719Z,3.22
2023-02-22T02:51:31.606Z,3.90
2023-02-22T02:53:58.988Z,3.80
2023-02-22T02:56:26.140Z,3.65
2023-02-22T02:58:54.300Z,3.88
2023-02-22T03:01:28.969Z,3.75
2023-02-22T03:03:55.991Z,3.35
2023-02-22T03:06:28.842Z,3.92
2023-02-22T03:09:14.376Z,3.55
2023-02-22T03:11:48.508Z,3.55
2023-02-22T03:14:23.878Z,4.15
2023-02-22T03:16:53.412Z,3.97
2023-02-22T03:19:30.034Z,3.10
2023-02-22T03:21:59.671Z,3.92
2023-02-22T03:24:42.413Z,3.55
2023-02-22T03:27:21.410Z,3.75
2023-02-22T03:29:50.663Z,3.42
2023-02-22T03:32:22.551Z,3.53
2023-02-22T03:34:53.642Z,4.13
2023-02-22T03:37:21.980Z,3.42
2023-02-22T03:39:50.497Z,3.30
2023-02-22T03:42:37.786Z,3.30
2023-02-22T03:45:05.813Z,4.20
2023-02-22T03:47:44.213Z,3.55
2023-02-22T03:50:18.810Z,3.88
2023-02-22T03:52:47.371Z,3.90
2023-02-22T03:55:17.631Z,4.18
2023-02-22T03:57:47.216Z,4.18
2023-02-22T04:00:17.923Z,4.25
2023-02-22T04:02:45.484Z,3.65
2023-02-22T04:05:14.136Z,4.35
2023-02-22T04:07:41.910Z,3.83
2023-02-22T04:10:09.220Z,4.18
2023-02-22T04:12:36.669Z,3.97
2023-02-22T04:15:04.365Z,3.95
2023-02-22T04:17:31.377Z,4.57
2023-02-22T04:19:58.520Z,4.53
2023-02-22T04:22:25.563Z,4.22
2023-02-22T04:24:53.639Z,4.32
2023-02-22T04:27:20.678Z,4.05
2023-02-22T04:29:47.758Z,4.50
2023-02-22T04:32:14.846Z,4.40
2023-02-22T04:34:41.911Z,4.50
2023-02-22T04:37:10.194Z,4.25
2023-02-22T04:39:37.294Z,4.20
2023-02-22T04:42:04.996Z,4.70
2023-02-22T04:44:32.360Z,4.10
2023-02-22T04:46:59.446Z,5.55
2023-02-22T04:49:26.480Z,4.10
2023-02-22T04:51:53.704Z,4.45
2023-02-22T04:54:20.682Z,3.97
2023-02-22T04:56:47.692Z,4.05
2023-02-22T04:59:14.717Z,3.92
2023-02-22T05:01:41.701Z,4.38
2023-02-22T05:04:09.204Z,4.65
2023-02-22T05:06:36.251Z,4.00
2023-02-22T05:09:03.866Z,4.28
2023-02-22T05:11:31.008Z,4.15
2023-02-22T05:13:58.086Z,4.95
2023-02-22T05:16:25.241Z,5.13
2023-02-22T05:18:52.435Z,4.28
2023-02-22T05:21:19.560Z,4.45
2023-02-22T05:23:46.615Z,4.40
2023-02-22T05:26:13.768Z,4.50
2023-02-22T05:28:40.862Z,4.80
2023-02-22T05:31:07.891Z,4.97
2023-02-22T05:33:35.114Z,4.55
2023-02-22T05:36:02.332Z,4.72
2023-02-22T05:38:29.336Z,4.03
2023-02-22T05:40:56.897Z,4.63
2023-02-22T05:43:23.963Z,5.10
2023-02-22T05:45:50.968Z,4.68
2023-02-22T05:48:18.009Z,4.93
2023-02-22T05:50:45.162Z,4.75
2023-02-22T05:53:12.203Z,4.70
2023-02-22T05:55:40.160Z,4.65
2023-02-22T05:58:07.246Z,4.25
2023-02-22T06:00:34.335Z,4.82
2023-02-22T06:03:05.328Z,5.07
2023-02-22T06:05:32.437Z,5.22
2023-02-22T06:07:59.805Z,4.93
2023-02-22T06:10:27.115Z,4.75
2023-02-22T06:12:54.358Z,5.28
2023-02-22T06:15:22.567Z,4.25
2023-02-22T06:17:49.587Z,4.30
2023-02-22T06:20:18.104Z,4.13
2023-02-22T06:22:47.183Z,3.83
2023-02-22T06:25:15.380Z,4.03
2023-02-22T06:27:42.420Z,4.43
2023-02-22T06:30:12.276Z,4.28
2023-02-22T06:32:40.310Z,5.00
2023-02-22T06:35:07.632Z,4.75
2023-02-22T06:37:34.693Z,4.65
2023-02-22T06:40:05.503Z,4.43
2023-02-22T06:42:33.101Z,4.85
2023-02-22T06:45:00.204Z,4.82
2023-02-22T06:47:27.302Z,4.78
2023-02-22T06:49:54.890Z,4.93
2023-02-22T06:52:22.734Z,4.95
2023-02-22T06:54:49.958Z,4.25
2023-02-22T06:57:17.153Z,3.72
2023-02-22T06:59:44.272Z,9.60
2023-02-22T07:02:12.430Z,7.30
2023-02-22T07:04:42.868Z,6.32
2023-02-22T07:07:10.387Z,5.43
2023-02-22T07:09:37.481Z,4.93
2023-02-22T07:12:04.858Z,5.80
2023-02-22T07:14:31.908Z,4.50
2023-02-22T07:16:58.916Z,4.88
2023-02-22T07:19:25.950Z,5.45
2023-02-22T07:21:58.984Z,5.80
2023-02-22T07:24:28.315Z,6.07
2023-02-22T07:26:55.458Z,6.03
2023-02-22T07:29:22.619Z,5.75
2023-02-22T07:31:50.033Z,5.28
2023-02-22T07:34:17.182Z,6.05
2023-02-22T07:36:44.297Z,5.00
2023-02-22T07:39:11.417Z,5.25
2023-02-22T07:41:38.842Z,5.78
2023-02-22T07:44:06.168Z,5.40
2023-02-22T07:46:33.923Z,6.03
2023-02-22T07:49:01.059Z,5.30
2023-02-22T07:51:28.175Z,5.18
2023-02-22T07:53:55.191Z,4.80
2023-02-22T07:56:22.293Z,4.75
2023-02-22T07:58:49.299Z,5.40
2023-02-22T08:01:16.861Z,4.50
2023-02-22T08:03:47.386Z,5.00
2023-02-22T08:06:14.483Z,4.78
2023-02-22T08:08:41.583Z,3.92
2023-02-22T08:11:08.603Z,4.13
2023-02-22T08:13:37.171Z,4.55
2023-02-22T08:16:04.243Z,5.45
2023-02-22T08:18:31.313Z,4.72
2023-02-22T08:20:58.312Z,4.57
2023-02-22T08:23:26.961Z,4.95
2023-02-22T08:25:54.507Z,4.85
2023-02-22T08:28:23.322Z,5.70
2023-02-22T08:30:50.601Z,6.20
2023-02-22T08:33:19.722Z,5.18
2023-02-22T08:35:49.482Z,5.28
2023-02-22T08:38:18.778Z,5.15
2023-02-22T08:40:46.179Z,4.75
2023-02-22T08:43:13.850Z,4.60
2023-02-22T08:45:41.333Z,5.03
2023-02-22T08:48:08.398Z,5.10
2023-02-22T08:50:36.048Z,4.57
2023-02-22T08:53:04.129Z,4.55
2023-02-22T08:55:32.924Z,4.63
2023-02-22T08:58:01.409Z,4.38
2023-02-22T09:00:29.618Z,4.70
2023-02-22T09:02:56.739Z,5.35
2023-02-22T09:05:23.830Z,4.35
2023-02-22T09:07:50.882Z,5.20
2023-02-22T09:10:24.426Z,4.97
2023-02-22T09:12:55.558Z,4.55
2023-02-22T09:15:23.221Z,4.85
2023-02-22T09:17:50.298Z,4.85
2023-02-22T09:20:18.849Z,5.30
2023-02-22T09:22:46.506Z,5.88
2023-02-22T09:25:17.087Z,5.78
2023-02-22T09:27:44.944Z,4.97
2023-02-22T09:30:23.949Z,5.50
2023-02-22T09:32:52.298Z,4.65
2023-02-22T09:35:19.788Z,4.75
2023-02-22T09:37:46.859Z,5.10
2023-02-22T09:40:24.796Z,5.68
2023-02-22T09:42:57.990Z,4.72
2023-02-22T09:45:28.598Z,4.47
2023-02-22T09:48:15.140Z,5.32
2023-02-22T09:50:50.334Z,4.22
2023-02-22T09:53:29.670Z,4.20
2023-02-22T09:56:01.408Z,3.95
2023-02-22T09:58:34.195Z,5.03
2023-02-22T10:01:20.147Z,3.92
2023-02-22T10:04:05.691Z,4.57
2023-02-22T10:06:34.308Z,4.15
2023-02-22T10:09:07.637Z,3.67
2023-02-22T10:11:41.692Z,4.78
2023-02-22T10:16:53.307Z,4.25
2023-02-22T10:19:38.791Z,3.55
2023-02-22T10:22:12.000Z,3.13
2023-02-22T10:24:39.929Z,3.33
2023-02-22T10:27:08.478Z,3.25
2023-02-22T10:29:46.824Z,3.78
2023-02-22T10:32:19.682Z,3.58
2023-02-22T10:34:54.493Z,3.00
2023-02-22T10:37:26.310Z,2.70
2023-02-22T10:40:17.282Z,3.38
2023-02-22T10:42:44.626Z,2.80
2023-02-22T10:45:23.735Z,4.80
2023-02-22T10:47:51.506Z,3.00
2023-02-22T10:50:20.774Z,3.08
2023-02-22T10:52:47.885Z,2.75
2023-02-22T10:55:16.142Z,2.50
2023-02-22T10:57:46.583Z,1.73
2023-02-22T11:00:19.639Z,2.30
2023-02-22T11:02:55.951Z,2.13
2023-02-22T11:05:29.298Z,1.70
2023-02-22T11:08:25.802Z,2.65
2023-02-22T11:10:57.110Z,2.17
2023-02-22T11:13:28.596Z,1.90
2023-02-22T11:16:15.868Z,2.00
2023-02-22T11:18:42.959Z,2.13
2023-02-22T11:21:12.207Z,2.92
2023-02-22T11:23:40.602Z,2.65
2023-02-22T11:26:15.167Z,2.63
2023-02-22T11:28:49.212Z,2.20
2023-02-22T11:31:18.722Z,2.35
2023-02-22T11:36:33.262Z,2.15
2023-02-22T11:39:00.961Z,1.95
2023-02-22T11:41:34.042Z,1.58
2023-02-22T11:44:15.263Z,1.47
2023-02-22T11:46:42.976Z,1.42
2023-02-22T11:49:10.871Z,1.60
2023-02-22T11:51:56.475Z,2.35
2023-02-22T11:54:28.956Z,1.40
2023-02-22T11:57:10.704Z,1.75
2023-02-22T11:59:58.598Z,1.52
2023-02-22T12:02:36.550Z,2.30
2023-02-22T12:05:19.190Z,2.03
2023-02-22T12:07:46.244Z,2.67
2023-02-22T12:10:19.358Z,1.38
2023-02-22T12:12:59.983Z,1.37
2023-02-22T12:15:40.278Z,1.70
2023-02-22T12:18:20.687Z,1.35
2023-02-22T12:20:51.850Z,1.40
2023-02-22T12:23:23.369Z,1.40
2023-02-22T12:26:00.860Z,1.90
2023-02-22T12:28:36.871Z,1.33
2023-02-22T12:31:12.847Z,1.20
2023-02-22T12:34:02.309Z,1.10
2023-02-22T12:36:33.908Z,0.88
2023-02-22T12:39:07.478Z,1.13
2023-02-22T12:41:34.774Z,1.10
2023-02-22T12:44:09.353Z,1.13
2023-02-22T12:46:48.535Z,1.45
2023-02-22T12:49:17.636Z,1.27
2023-02-22T12:51:56.625Z,1.48
2023-02-22T12:54:42.207Z,1.50
2023-02-22T12:57:16.938Z,1.63
2023-02-22T12:59:49.704Z,1.05
2023-02-22T13:02:20.475Z,1.35
2023-02-22T13:04:47.579Z,1.73
2023-02-22T13:07:29.907Z,1.10
2023-02-22T13:09:59.678Z,1.60
2023-02-22T13:12:26.701Z,1.27
2023-02-22T13:15:12.846Z,1.15
2023-02-22T13:18:01.278Z,1.67
2023-02-22T13:20:36.445Z,1.10
2023-02-22T13:23:22.193Z,1.40
2023-02-22T13:25:58.006Z,1.23
2023-02-22T13:28:31.339Z,1.08
2023-02-22T13:31:01.565Z,0.75
2023-02-22T13:33:44.567Z,1.25
2023-02-22T13:36:15.053Z,1.08
2023-02-22T13:38:42.259Z,1.08
2023-02-22T13:41:19.919Z,1.55
2023-02-22T13:44:02.014Z,1.52
2023-02-22T13:46:35.287Z,0.70
2023-02-22T13:49:09.983Z,0.75
2023-02-22T13:51:50.764Z,1.10
2023-02-22T13:54:27.511Z,0.80
2023-02-22T13:56:56.119Z,1.02
2023-02-22T13:59:36.678Z,1.08
2023-02-22T14:02:05.497Z,1.05
2023-02-22T14:04:32.517Z,0.90
2023-02-22T14:07:00.802Z,1.00
2023-02-22T14:09:45.435Z,0.80
2023-02-22T14:12:30.926Z,1.40
2023-02-22T14:15:28.766Z,0.98
2023-02-22T14:18:01.034Z,2.25
2023-02-22T14:20:35.962Z,3.33
2023-02-22T14:23:21.725Z,2.85
2023-02-22T14:25:48.848Z,3.13
2023-02-22T14:28:34.093Z,2.58
2023-02-22T14:31:17.442Z,3.05
2023-02-22T14:34:09.961Z,3.00
2023-02-22T14:36:41.985Z,3.13
2023-02-22T14:39:12.208Z,2.47
2023-02-22T14:41:41.901Z,2.55
2023-02-22T14:44:12.803Z,2.40
2023-02-22T14:46:41.910Z,2.30
2023-02-22T14:49:16.683Z,2.63
2023-02-22T14:51:45.083Z,2.17
2023-02-22T14:54:13.242Z,2.65
2023-02-22T14:56:44.231Z,2.80
2023-02-22T14:59:17.485Z,2.58
2023-02-22T15:02:01.545Z,3.20
2023-02-22T15:04:33.100Z,3.00
2023-02-22T15:07:01.094Z,2.53
2023-02-22T15:09:37.325Z,2.50
2023-02-22T15:12:04.603Z,2.47
2023-02-22T15:14:37.316Z,2.08
2023-02-22T15:17:08.043Z,3.00
2023-02-22T15:19:38.186Z,2.72
2023-02-22T15:22:09.133Z,3.03
2023-02-22T15:24:37.957Z,2.65
2023-02-22T15:27:13.521Z,2.80
2023-02-22T15:29:44.385Z,2.22
2023-02-22T15:32:29.714Z,2.40
2023-02-22T15:35:07.873Z,3.08
2023-02-22T15:37:34.888Z,2.72
2023-02-22T15:40:14.400Z,2.13
2023-02-22T15:42:45.883Z,3.35
2023-02-22T15:45:20.148Z,2.50
2023-02-22T15:47:47.552Z,2.33
2023-02-22T15:50:45.138Z,2.42
2023-02-22T15:53:21.079Z,2.97
2023-02-22T15:55:49.412Z,2.25
2023-02-22T15:58:16.460Z,2.15
2023-02-22T16:00:45.182Z,3.05
2023-02-22T16:03:13.361Z,2.08
2023-02-22T16:05:42.683Z,2.67
2023-02-22T16:08:14.170Z,2.67
2023-02-22T16:10:44.798Z,2.70
2023-02-22T16:13:31.593Z,2.30
2023-02-22T16:16:02.799Z,2.42
2023-02-22T16:18:34.324Z,2.50
2023-02-22T16:21:03.768Z,3.53
2023-02-22T16:23:33.566Z,2.78
2023-02-22T16:26:19.359Z,2.80
2023-02-22T16:28:55.070Z,2.80
2023-02-22T16:31:25.070Z,2.83
2023-02-22T16:33:55.426Z,3.00
2023-02-22T16:36:25.028Z,3.25
2023-02-22T16:38:52.649Z,3.08
2023-02-22T16:41:19.913Z,3.10
2023-02-22T16:43:47.725Z,3.22
2023-02-22T16:46:15.069Z,3.63
2023-02-22T16:48:43.041Z,3.10
2023-02-22T16:51:17.353Z,3.63
2023-02-22T16:53:44.636Z,3.20
2023-02-22T16:56:16.075Z,3.38
2023-02-22T16:58:43.980Z,3.33
2023-02-22T17:01:12.736Z,3.88
2023-02-22T17:03:39.934Z,3.50
2023-02-22T17:06:07.105Z,3.35
2023-02-22T17:08:34.148Z,3.40
2023-02-22T17:11:01.256Z,3.17
2023-02-22T17:13:29.228Z,3.22
2023-02-22T17:15:57.342Z,3.75
2023-02-22T17:18:28.234Z,3.22
2023-02-22T17:20:55.535Z,3.90
2023-02-22T17:23:23.408Z,3.70
2023-02-22T17:25:54.774Z,3.58
2023-02-22T17:28:23.536Z,3.72
2023-02-22T17:30:51.550Z,4.65
2023-02-22T17:33:20.241Z,4.28
2023-02-22T17:35:47.648Z,4.20
2023-02-22T17:38:18.339Z,3.88
2023-02-22T17:40:49.492Z,3.85
2023-02-22T17:43:17.816Z,4.07
2023-02-22T17:45:45.899Z,3.55
2023-02-22T17:48:13.768Z,4.25
2023-02-22T17:50:41.589Z,3.83
2023-02-22T17:53:10.878Z,3.95
2023-02-22T17:55:39.116Z,4.90
2023-02-22T17:58:06.846Z,4.45
2023-02-22T18:00:38.603Z,4.38
2023-02-22T18:03:07.620Z,4.38
2023-02-22T18:05:39.142Z,7.60
2023-02-22T18:08:06.152Z,8.00
2023-02-22T18:10:33.405Z,7.72
2023-02-22T18:13:02.009Z,7.95
2023-02-22T18:15:30.187Z,8.38
2023-02-22T18:17:57.582Z,7.03
2023-02-22T18:20:31.138Z,9.00
2023-02-22T18:22:59.331Z,7.38
2023-02-22T18:25:26.628Z,7.50
2023-02-22T18:27:54.899Z,7.30
2023-02-22T18:30:22.188Z,7.53
2023-02-22T18:32:49.267Z,8.93
2023-02-22T18:35:16.336Z,8.73
2023-02-22T18:37:44.400Z,8.88
2023-02-22T18:40:11.599Z,9.43
2023-02-22T18:42:39.548Z,8.27
2023-02-22T18:45:07.396Z,8.40
2023-02-22T18:47:42.051Z,10.07
2023-02-22T18:50:12.920Z,9.20
2023-02-22T18:52:46.331Z,10.32
2023-02-22T18:55:21.256Z,9.27
2023-02-22T18:57:48.823Z,9.70
2023-02-22T19:00:17.036Z,9.93
2023-02-22T19:02:44.089Z,8.00
2023-02-22T19:05:11.663Z,8.18
2023-02-22T19:07:38.701Z,8.57
2023-02-22T19:10:06.565Z,8.15
2023-02-22T19:12:33.783Z,9.40
2023-02-22T19:15:00.982Z,10.10
2023-02-22T19:17:29.439Z,11.77
2023-02-22T19:19:56.775Z,17.90
2023-02-22T19:22:26.119Z,12.05
2023-02-22T19:24:54.075Z,12.65
2023-02-22T19:27:21.502Z,11.73
2023-02-22T19:29:49.481Z,11.65
2023-02-22T19:32:17.452Z,12.48
2023-02-22T19:34:44.877Z,13.70
2023-02-22T19:37:12.973Z,14.95
2023-02-22T19:39:42.085Z,13.20
2023-02-22T19:42:10.109Z,12.98
2023-02-22T19:44:37.691Z,12.73
2023-02-22T19:47:09.943Z,11.93
2023-02-22T19:49:37.792Z,14.35
2023-02-22T19:52:06.537Z,12.95
2023-02-22T19:54:33.863Z,14.10
2023-02-22T19:57:01.051Z,13.95
2023-02-22T19:59:28.307Z,14.27
2023-02-22T20:01:56.149Z,13.55
2023-02-22T20:04:24.157Z,14.82
2023-02-22T20:06:56.480Z,13.30
2023-02-22T20:09:36.341Z,13.45
2023-02-22T20:12:04.398Z,15.10
2023-02-22T20:14:31.551Z,14.13
2023-02-22T20:16:59.083Z,13.38
2023-02-22T20:19:26.787Z,13.77
2023-02-22T20:21:55.786Z,14.43
2023-02-22T20:24:23.638Z,14.02
2023-02-22T20:26:51.149Z,15.25
2023-02-22T20:29:18.316Z,12.27
2023-02-22T20:31:49.507Z,14.77
2023-02-22T20:34:16.583Z,15.02
2023-02-22T20:36:43.599Z,14.38
2023-02-22T20:39:14.960Z,14.32
2023-02-22T20:41:43.060Z,13.90
2023-02-22T20:44:11.712Z,15.20
2023-02-22T20:46:38.777Z,14.93
2023-02-22T20:49:08.038Z,14.27
2023-02-22T20:51:35.461Z,15.02
2023-02-22T20:54:02.610Z,15.27
2023-02-22T20:56:30.585Z,14.52
2023-02-22T20:58:58.425Z,14.95
2023-02-22T21:01:25.643Z,14.98
2023-02-22T21:03:52.730Z,14.45
2023-02-22T21:06:21.326Z,13.63
2023-02-22T21:08:54.921Z,13.90
2023-02-22T21:11:22.975Z,13.80
2023-02-22T21:13:50.567Z,14.30
2023-02-22T21:16:22.653Z,14.30
2023-02-22T21:18:54.057Z,13.85
2023-02-22T21:21:21.729Z,15.15
2023-02-22T21:23:52.590Z,13.98
2023-02-22T21:26:20.806Z,14.98
2023-02-22T21:28:51.218Z,15.05
2023-02-22T21:31:20.336Z,14.18
2023-02-22T21:33:50.353Z,14.00
2023-02-22T21:36:17.686Z,14.73
2023-02-22T21:38:46.047Z,15.48
2023-02-22T21:41:17.837Z,14.02
2023-02-22T21:43:49.372Z,14.27
2023-02-22T21:46:16.482Z,13.88
2023-02-22T21:48:45.138Z,14.68
2023-02-22T21:51:13.986Z,14.10
2023-02-22T21:53:48.276Z,14.75
2023-02-22T21:56:16.204Z,15.30
2023-02-22T21:58:43.906Z,15.25
2023-02-22T22:01:16.973Z,14.40
2023-02-22T22:03:45.065Z,14.95
2023-02-22T22:06:13.402Z,14.95
2023-02-22T22:08:41.445Z,15.27
2023-02-22T22:11:09.643Z,16.77
2023-02-22T22:13:37.942Z,15.32
2023-02-22T22:16:12.638Z,14.60
2023-02-22T22:18:40.213Z,14.65
2023-02-22T22:21:16.378Z,15.55
2023-02-22T22:23:46.634Z,14.88
2023-02-22T22:26:14.786Z,16.15
2023-02-22T22:28:42.773Z,15.98
2023-02-22T22:31:10.351Z,17.02
2023-02-22T22:33:38.212Z,17.05
2023-02-22T22:36:05.915Z,16.20
2023-02-22T22:38:33.575Z,16.25
2023-02-22T22:41:01.230Z,16.30
2023-02-22T22:43:29.769Z,16.25
2023-02-22T22:46:00.542Z,16.33
2023-02-22T22:48:28.076Z,17.20
2023-02-22T22:51:06.442Z,16.85
2023-02-22T22:53:34.498Z,15.93
2023-02-22T22:56:16.225Z,16.77
2023-02-22T22:58:44.417Z,16.60
2023-02-22T23:01:18.045Z,16.88
2023-02-22T23:06:16.378Z,15.55
2023-02-22T23:08:43.429Z,16.80
2023-02-22T23:11:11.653Z,16.27
2023-02-22T23:13:41.828Z,16.95
2023-02-22T23:16:13.061Z,17.73
2023-02-22T23:18:43.209Z,17.05
2023-02-22T23:21:11.017Z,18.52
2023-02-22T23:23:38.571Z,17.90
2023-02-22T23:26:17.800Z,18.30
2023-02-22T23:28:46.136Z,17.95
2023-02-22T23:31:15.365Z,18.08
2023-02-22T23:33:48.189Z,18.60
2023-02-22T23:36:16.149Z,17.35
2023-02-22T23:38:43.526Z,17.20
2023-02-22T23:41:12.239Z,17.63
2023-02-22T23:43:44.046Z,16.85
2023-02-22T23:46:12.602Z,17.52
2023-02-22T23:48:46.541Z,18.52
2023-02-22T23:51:14.308Z,17.13
2023-02-22T23:53:45.898Z,18.15
2023-02-22T23:56:17.611Z,18.15
2023-02-22T23:58:49.736Z,18.15
